createdAt,value
2023-03-30T00:01:14.572Z,45.96
2023-03-30T00:04:18.776Z,45.96
2023-03-30T00:07:21.466Z,45.18
2023-03-30T00:10:24.170Z,45.48
2023-03-30T00:13:26.921Z,45.50
2023-03-30T00:16:29.588Z,44.98
2023-03-30T00:19:33.604Z,44.84
2023-03-30T00:22:36.443Z,45.18
2023-03-30T00:25:39.164Z,45.31
2023-03-30T00:28:42.277Z,45.19
2023-03-30T00:31:44.907Z,45.36
2023-03-30T00:34:48.811Z,45.43
2023-03-30T00:37:51.430Z,45.79
2023-03-30T00:40:54.998Z,46.36
2023-03-30T00:43:59.428Z,45.78
2023-03-30T00:47:02.149Z,45.46
2023-03-30T00:50:07.978Z,45.54
2023-03-30T00:53:12.767Z,46.10
2023-03-30T00:56:18.094Z,45.88
2023-03-30T00:59:20.736Z,45.52
2023-03-30T01:02:23.432Z,45.44
2023-03-30T01:05:28.283Z,45.74
2023-03-30T01:08:32.602Z,45.51
2023-03-30T01:11:35.228Z,45.64
2023-03-30T01:14:38.604Z,44.92
2023-03-30T01:17:53.771Z,45.81
2023-03-30T01:21:37.696Z,46.27
2023-03-30T01:25:03.720Z,46.51
2023-03-30T01:28:22.295Z,47.34
2023-03-30T01:31:50.569Z,47.55
2023-03-30T01:35:04.799Z,52.57
2023-03-30T01:38:40.577Z,57.47
2023-03-30T01:41:52.006Z,56.52
2023-03-30T01:44:59.469Z,56.57
2023-03-30T01:48:07.020Z,59.16
2023-03-30T01:51:12.139Z,60.52
2023-03-30T01:54:19.250Z,61.20
2023-03-30T01:57:28.037Z,60.58
2023-03-30T02:00:31.011Z,60.30
2023-03-30T02:03:36.361Z,59.42
2023-03-30T02:06:44.259Z,58.69
2023-03-30T02:09:48.254Z,58.53
2023-03-30T02:12:52.846Z,58.38
2023-03-30T02:15:57.993Z,57.96
2023-03-30T02:19:01.775Z,57.57
2023-03-30T02:22:04.436Z,57.66
2023-03-30T02:25:07.889Z,57.71
2023-03-30T02:28:11.933Z,57.53
2023-03-30T02:31:16.078Z,57.18
2023-03-30T02:34:24.470Z,57.08
2023-03-30T02:37:45.023Z,57.64
2023-03-30T02:40:56.182Z,57.64
2023-03-30T02:44:07.588Z,57.43
2023-03-30T02:47:14.546Z,57.77
2023-03-30T02:50:21.167Z,58.14
2023-03-30T02:53:27.274Z,58.65
2023-03-30T02:56:37.519Z,59.37
2023-03-30T02:59:47.424Z,61.79
2023-03-30T03:02:53.951Z,63.37
2023-03-30T03:05:56.886Z,65.23
2023-03-30T03:09:00.116Z,67.03
2023-03-30T03:12:02.636Z,69.75
2023-03-30T03:15:07.656Z,72.01
2023-03-30T03:18:10.674Z,72.69
2023-03-30T03:21:14.694Z,73.89
2023-03-30T03:24:19.105Z,74.06
2023-03-30T03:27:21.899Z,74.41
2023-03-30T03:30:25.878Z,73.31
2023-03-30T03:33:28.676Z,72.96
2023-03-30T03:36:32.428Z,73.41
2023-03-30T03:39:37.142Z,72.40
2023-03-30T03:42:39.998Z,71.83
2023-03-30T03:45:43.985Z,71.15
2023-03-30T03:48:46.684Z,70.72
2023-03-30T03:51:49.331Z,70.75
2023-03-30T03:54:51.881Z,69.95
2023-03-30T03:57:54.438Z,70.02
2023-03-30T04:01:01.147Z,70.45
2023-03-30T04:04:03.855Z,70.13
2023-03-30T04:07:06.589Z,69.69
2023-03-30T04:10:09.747Z,68.75
2023-03-30T04:13:12.710Z,68.92
2023-03-30T04:16:16.866Z,69.05
2023-03-30T04:19:19.397Z,68.59
2023-03-30T04:22:24.274Z,67.87
2023-03-30T04:25:26.862Z,68.62
2023-03-30T04:28:29.834Z,68.44
2023-03-30T04:31:35.404Z,69.23
2023-03-30T04:34:38.706Z,68.70
2023-03-30T04:37:42.219Z,69.98
2023-03-30T04:40:44.758Z,70.02
2023-03-30T04:43:47.271Z,70.43
2023-03-30T04:46:51.318Z,70.55
2023-03-30T04:49:53.947Z,70.73
2023-03-30T04:52:56.477Z,71.16
2023-03-30T04:55:59.066Z,71.45
2023-03-30T04:59:01.653Z,71.57
2023-03-30T05:02:05.503Z,72.06
2023-03-30T05:05:08.766Z,72.16
2023-03-30T05:08:11.376Z,71.39
2023-03-30T05:11:14.348Z,71.78
2023-03-30T05:14:17.251Z,71.44
2023-03-30T05:17:21.540Z,70.57
2023-03-30T05:20:25.182Z,70.59
2023-03-30T05:23:27.538Z,69.76
2023-03-30T05:26:30.454Z,70.51
2023-03-30T05:29:33.283Z,70.40
2023-03-30T05:32:37.327Z,70.57
2023-03-30T05:35:40.133Z,70.74
2023-03-30T05:38:42.856Z,70.45
2023-03-30T05:41:45.421Z,70.33
2023-03-30T05:44:48.049Z,69.55
2023-03-30T05:47:54.070Z,67.75
2023-03-30T05:50:56.788Z,66.59
2023-03-30T05:53:59.300Z,65.55
2023-03-30T05:57:02.127Z,65.12
2023-03-30T06:00:06.929Z,64.86
2023-03-30T06:03:11.752Z,64.33
2023-03-30T06:06:14.675Z,64.52
2023-03-30T06:09:17.309Z,64.24
2023-03-30T06:12:19.826Z,64.54
2023-03-30T06:15:22.321Z,64.33
2023-03-30T06:18:26.383Z,66.71
2023-03-30T06:21:29.351Z,69.48
2023-03-30T06:24:31.857Z,70.88
2023-03-30T06:27:34.392Z,71.49
2023-03-30T06:30:37.098Z,71.82
2023-03-30T06:33:41.965Z,71.37
2023-03-30T06:36:46.200Z,71.41
2023-03-30T06:39:48.869Z,70.63
2023-03-30T06:42:51.780Z,69.71
2023-03-30T06:45:56.183Z,68.91
2023-03-30T06:49:00.228Z,67.98
2023-03-30T06:52:05.037Z,67.36
2023-03-30T06:55:09.732Z,66.98
2023-03-30T06:58:12.617Z,66.35
2023-03-30T07:01:16.804Z,65.42
2023-03-30T07:04:20.796Z,65.25
2023-03-30T07:07:23.728Z,64.16
2023-03-30T07:10:26.672Z,63.99
2023-03-30T07:13:29.318Z,66.15
2023-03-30T07:16:32.206Z,66.59
2023-03-30T07:19:36.579Z,69.24
2023-03-30T07:22:39.142Z,75.39
2023-03-30T07:25:42.195Z,78.60
2023-03-30T07:28:45.735Z,79.61
2023-03-30T07:31:48.500Z,80.58
2023-03-30T07:34:52.564Z,82.43
2023-03-30T07:38:02.836Z,84.02
2023-03-30T07:41:09.978Z,84.04
2023-03-30T07:44:12.589Z,83.59
2023-03-30T07:47:15.271Z,85.07
2023-03-30T07:50:19.340Z,85.59
2023-03-30T07:53:22.799Z,87.77
2023-03-30T07:56:25.227Z,87.14
2023-03-30T07:59:27.781Z,86.82
2023-03-30T08:02:30.712Z,87.83
2023-03-30T08:05:34.858Z,87.36
2023-03-30T08:08:40.890Z,85.50
2023-03-30T08:11:46.836Z,84.52
2023-03-30T08:14:49.402Z,84.71
2023-03-30T08:17:52.199Z,84.58
2023-03-30T08:20:56.204Z,83.63
2023-03-30T08:23:59.313Z,83.76
2023-03-30T08:27:02.028Z,85.27
2023-03-30T08:30:05.423Z,83.74
2023-03-30T08:33:08.990Z,81.56
2023-03-30T08:36:13.769Z,82.95
2023-03-30T08:39:16.768Z,82.72
2023-03-30T08:42:49.811Z,82.32
2023-03-30T08:45:52.940Z,83.10
2023-03-30T08:48:57.801Z,83.35
2023-03-30T08:52:03.234Z,83.68
2023-03-30T08:55:06.777Z,83.46
2023-03-30T08:58:14.579Z,83.00
2023-03-30T09:01:20.596Z,83.17
2023-03-30T09:04:29.088Z,83.55
2023-03-30T09:07:38.354Z,82.92
2023-03-30T09:10:42.893Z,82.81
2023-03-30T09:13:46.450Z,82.90
2023-03-30T09:16:52.536Z,82.89
2023-03-30T09:19:57.189Z,82.41
2023-03-30T09:23:02.254Z,79.64
2023-03-30T09:26:14.762Z,79.24
2023-03-30T09:29:20.086Z,75.79
2023-03-30T09:32:29.733Z,71.92
2023-03-30T09:35:38.562Z,70.57
2023-03-30T09:38:42.850Z,68.51
2023-03-30T09:41:56.245Z,67.34
2023-03-30T09:45:02.103Z,65.74
2023-03-30T09:48:06.734Z,65.34
2023-03-30T09:51:23.193Z,64.33
2023-03-30T09:54:35.777Z,63.83
2023-03-30T09:57:38.416Z,63.71
2023-03-30T10:00:41.191Z,64.92
2023-03-30T10:03:45.605Z,65.53
2023-03-30T10:06:49.260Z,64.53
2023-03-30T10:09:53.017Z,61.22
2023-03-30T10:12:56.575Z,57.49
2023-03-30T10:16:05.216Z,55.41
2023-03-30T10:19:17.259Z,52.95
2023-03-30T10:22:22.434Z,53.52
2023-03-30T10:25:31.414Z,51.50
2023-03-30T10:28:35.900Z,52.69
2023-03-30T10:31:40.057Z,55.04
2023-03-30T10:34:44.201Z,58.15
2023-03-30T10:37:48.152Z,60.93
2023-03-30T10:40:55.713Z,60.47
2023-03-30T10:43:58.330Z,61.38
2023-03-30T10:47:09.917Z,60.76
2023-03-30T10:50:20.059Z,59.48
2023-03-30T10:53:28.825Z,58.58
2023-03-30T10:56:36.114Z,58.56
2023-03-30T10:59:59.979Z,59.26
2023-03-30T11:03:08.751Z,59.67
2023-03-30T11:06:14.721Z,59.73
2023-03-30T11:09:19.528Z,60.25
2023-03-30T11:12:35.346Z,58.36
2023-03-30T11:15:42.253Z,55.02
2023-03-30T11:18:49.256Z,56.47
2023-03-30T11:21:56.809Z,54.79
2023-03-30T11:25:00.510Z,53.34
2023-03-30T11:28:13.069Z,54.22
2023-03-30T11:31:24.940Z,51.33
2023-03-30T11:34:32.477Z,50.87
2023-03-30T11:37:38.399Z,52.59
2023-03-30T11:40:44.002Z,52.93
2023-03-30T11:43:47.913Z,53.97
2023-03-30T11:46:54.926Z,55.96
2023-03-30T11:50:07.368Z,54.56
2023-03-30T11:53:17.877Z,55.19
2023-03-30T11:56:26.184Z,53.21
2023-03-30T11:59:35.558Z,55.40
2023-03-30T12:02:44.910Z,55.41
2023-03-30T12:05:49.286Z,55.32
2023-03-30T12:09:01.058Z,54.50
2023-03-30T12:12:06.686Z,55.65
2023-03-30T12:15:32.239Z,55.75
2023-03-30T12:18:40.420Z,56.07
2023-03-30T12:21:49.065Z,56.80
2023-03-30T12:24:55.460Z,58.09
2023-03-30T12:27:59.847Z,56.68
2023-03-30T12:31:03.915Z,56.24
2023-03-30T12:34:08.268Z,56.76
2023-03-30T12:37:14.016Z,55.41
2023-03-30T12:40:22.160Z,53.70
2023-03-30T12:43:31.212Z,53.38
2023-03-30T12:46:38.056Z,53.08
2023-03-30T12:49:50.617Z,50.89
2023-03-30T12:53:04.188Z,51.67
2023-03-30T12:56:08.381Z,48.43
2023-03-30T12:59:31.624Z,49.29
2023-03-30T13:02:48.310Z,49.92
2023-03-30T13:05:53.176Z,49.00
2023-03-30T13:08:58.029Z,47.62
2023-03-30T13:12:29.073Z,40.89
2023-03-30T13:15:35.199Z,34.92
2023-03-30T13:18:53.839Z,35.30
2023-03-30T13:21:58.133Z,31.82
2023-03-30T13:25:02.732Z,32.62
2023-03-30T13:28:46.285Z,38.97
2023-03-30T13:32:05.870Z,34.28
2023-03-30T13:35:30.799Z,34.32
2023-03-30T13:38:40.072Z,33.79
2023-03-30T13:41:49.996Z,35.69
2023-03-30T13:44:59.966Z,36.89
2023-03-30T13:48:12.106Z,36.44
2023-03-30T13:51:16.953Z,40.13
2023-03-30T13:54:23.328Z,41.94
2023-03-30T13:57:32.484Z,32.20
2023-03-30T14:00:47.259Z,27.89
2023-03-30T14:03:52.607Z,31.07
2023-03-30T14:06:58.208Z,33.29
2023-03-30T14:10:06.298Z,31.39
2023-03-30T14:13:13.727Z,36.72
2023-03-30T14:16:26.159Z,33.58
2023-03-30T14:19:30.437Z,34.08
2023-03-30T14:22:33.736Z,35.29
2023-03-30T14:25:36.905Z,32.27
2023-03-30T14:28:42.348Z,33.22
2023-03-30T14:31:56.816Z,35.95
2023-03-30T14:35:08.617Z,39.05
2023-03-30T14:38:17.046Z,38.70
2023-03-30T14:41:23.799Z,38.27
2023-03-30T14:44:26.356Z,38.69
2023-03-30T14:47:30.466Z,39.16
2023-03-30T14:50:33.226Z,40.26
2023-03-30T14:53:36.281Z,40.07
2023-03-30T14:56:38.860Z,47.90
2023-03-30T14:59:45.947Z,49.70
2023-03-30T15:02:51.867Z,48.77
2023-03-30T15:05:54.884Z,46.77
2023-03-30T15:09:01.928Z,46.78
2023-03-30T15:12:05.866Z,46.52
2023-03-30T15:15:09.529Z,46.85
2023-03-30T15:18:18.028Z,47.00
2023-03-30T15:21:21.568Z,46.49
2023-03-30T15:24:26.653Z,46.49
2023-03-30T15:27:29.411Z,46.89
2023-03-30T15:30:34.320Z,47.70
2023-03-30T15:33:42.837Z,47.09
2023-03-30T15:36:46.261Z,46.60
2023-03-30T15:39:49.644Z,48.91
2023-03-30T15:42:52.312Z,49.68
2023-03-30T15:45:57.900Z,42.33
2023-03-30T15:49:01.889Z,32.89
2023-03-30T15:52:10.773Z,40.77
2023-03-30T15:55:19.214Z,37.77
2023-03-30T15:58:25.906Z,30.25
2023-03-30T16:01:40.638Z,27.34
2023-03-30T16:04:44.788Z,27.04
2023-03-30T16:07:47.613Z,24.97
2023-03-30T16:10:50.835Z,24.10
2023-03-30T16:13:53.566Z,24.16
2023-03-30T16:16:56.101Z,23.66
2023-03-30T16:20:00.227Z,25.32
2023-03-30T16:23:04.417Z,24.25
2023-03-30T16:26:08.019Z,24.74
2023-03-30T16:29:16.537Z,31.49
2023-03-30T16:32:19.133Z,34.25
2023-03-30T16:35:23.667Z,31.34
2023-03-30T16:38:26.321Z,28.93
2023-03-30T16:41:28.831Z,28.55
2023-03-30T16:44:31.474Z,29.38
2023-03-30T16:47:37.223Z,27.39
2023-03-30T16:50:42.910Z,32.79
2023-03-30T16:53:45.501Z,34.60
2023-03-30T16:56:48.093Z,38.77
2023-03-30T16:59:51.482Z,42.11
2023-03-30T17:02:53.969Z,43.06
2023-03-30T17:05:57.915Z,44.82
2023-03-30T17:09:01.016Z,45.37
2023-03-30T17:12:03.605Z,46.84
2023-03-30T17:15:07.054Z,46.97
2023-03-30T17:18:11.390Z,47.16
2023-03-30T17:21:17.079Z,47.78
2023-03-30T17:24:20.106Z,48.40
2023-03-30T17:27:22.815Z,48.42
2023-03-30T17:30:26.870Z,48.71
2023-03-30T17:33:30.595Z,49.41
2023-03-30T17:36:34.479Z,50.36
2023-03-30T17:39:37.011Z,50.39
2023-03-30T17:42:39.669Z,51.17
2023-03-30T17:45:43.103Z,51.17
2023-03-30T17:48:45.699Z,51.01
2023-03-30T17:51:50.151Z,51.66
2023-03-30T17:54:52.780Z,51.93
2023-03-30T17:57:56.468Z,51.62
2023-03-30T18:01:00.891Z,52.52
2023-03-30T18:04:03.679Z,52.54
2023-03-30T18:07:08.411Z,52.88
2023-03-30T18:10:16.702Z,53.84
2023-03-30T18:13:19.964Z,53.38
2023-03-30T18:16:24.325Z,53.64
2023-03-30T18:19:27.713Z,54.14
2023-03-30T18:22:31.594Z,54.02
2023-03-30T18:25:34.266Z,54.27
2023-03-30T18:28:39.232Z,53.64
2023-03-30T18:31:41.876Z,53.84
2023-03-30T18:34:44.456Z,54.07
2023-03-30T18:37:50.721Z,55.02
2023-03-30T18:40:57.518Z,55.45
2023-03-30T18:44:00.802Z,55.43
2023-03-30T18:47:03.329Z,56.24
2023-03-30T18:50:10.089Z,56.79
2023-03-30T18:53:14.787Z,56.84
2023-03-30T18:56:17.327Z,57.50
2023-03-30T18:59:22.918Z,58.43
2023-03-30T19:02:26.508Z,58.57
2023-03-30T19:05:30.955Z,58.24
2023-03-30T19:08:34.772Z,58.52
2023-03-30T19:11:37.671Z,58.05
2023-03-30T19:14:40.349Z,57.76
2023-03-30T19:17:42.972Z,58.30
2023-03-30T19:20:46.247Z,58.01
2023-03-30T19:23:50.118Z,57.72
2023-03-30T19:26:52.784Z,59.38
2023-03-30T19:29:55.351Z,59.64
2023-03-30T19:32:59.605Z,60.58
2023-03-30T19:36:02.236Z,60.96
2023-03-30T19:39:06.217Z,60.38
2023-03-30T19:42:09.382Z,60.95
2023-03-30T19:45:12.561Z,60.99
2023-03-30T19:48:15.351Z,61.49
2023-03-30T19:51:18.995Z,61.39
2023-03-30T19:54:23.012Z,61.21
2023-03-30T19:57:25.769Z,61.25
2023-03-30T20:00:28.627Z,60.74
2023-03-30T20:03:31.267Z,60.35
2023-03-30T20:06:35.868Z,60.33
2023-03-30T20:09:40.707Z,59.90
2023-03-30T20:12:43.382Z,60.65
2023-03-30T20:15:46.304Z,60.38
2023-03-30T20:18:50.601Z,61.39
2023-03-30T20:21:53.204Z,60.64
2023-03-30T20:24:58.419Z,61.10
2023-03-30T20:28:00.975Z,61.46
2023-03-30T20:31:03.832Z,60.76
2023-03-30T20:34:07.614Z,60.53
2023-03-30T20:37:10.004Z,61.12
2023-03-30T20:40:14.627Z,62.31
2023-03-30T20:43:17.333Z,62.18
2023-03-30T20:46:21.942Z,61.57
2023-03-30T20:49:24.852Z,61.81
2023-03-30T20:52:27.602Z,60.97
2023-03-30T20:55:31.579Z,60.68
2023-03-30T20:58:34.180Z,61.03
2023-03-30T21:01:38.899Z,60.90
2023-03-30T21:04:42.803Z,60.91
2023-03-30T21:07:47.122Z,61.42
2023-03-30T21:10:51.597Z,61.67
2023-03-30T21:13:55.370Z,62.10
2023-03-30T21:16:57.947Z,61.17
2023-03-30T21:20:00.673Z,61.15
2023-03-30T21:23:03.672Z,61.28
2023-03-30T21:26:08.052Z,60.95
2023-03-30T21:29:10.814Z,60.86
2023-03-30T21:32:13.365Z,60.64
2023-03-30T21:35:16.251Z,59.74
2023-03-30T21:38:19.485Z,59.95
2023-03-30T21:41:24.203Z,59.62
2023-03-30T21:44:26.857Z,59.64
2023-03-30T21:47:29.513Z,59.40
2023-03-30T21:50:32.106Z,58.90
2023-03-30T21:53:35.759Z,59.25
2023-03-30T21:56:39.680Z,58.54
2023-03-30T21:59:42.293Z,58.35
2023-03-30T22:02:44.926Z,58.38
2023-03-30T22:05:48.071Z,58.04
2023-03-30T22:08:50.961Z,57.14
2023-03-30T22:11:55.438Z,56.88
2023-03-30T22:14:58.042Z,56.60
2023-03-30T22:18:00.614Z,55.98
2023-03-30T22:21:06.437Z,55.88
2023-03-30T22:24:09.212Z,55.84
2023-03-30T22:27:13.128Z,55.23
2023-03-30T22:30:16.438Z,54.81
2023-03-30T22:33:19.309Z,55.16
2023-03-30T22:36:24.449Z,55.87
2023-03-30T22:39:26.949Z,55.93
2023-03-30T22:42:30.893Z,55.85
2023-03-30T22:45:33.521Z,55.76
2023-03-30T22:48:36.481Z,55.83
2023-03-30T22:51:39.007Z,55.87
2023-03-30T22:54:41.592Z,55.77
2023-03-30T22:57:46.662Z,55.91
2023-03-30T23:00:49.291Z,55.71
2023-03-30T23:03:53.379Z,54.93
2023-03-30T23:06:56.145Z,55.45
2023-03-30T23:09:58.799Z,55.24
2023-03-30T23:13:02.700Z,54.89
2023-03-30T23:16:07.334Z,55.41
2023-03-30T23:19:10.941Z,55.40
2023-03-30T23:22:13.827Z,54.67
2023-03-30T23:25:16.562Z,54.32
2023-03-30T23:28:20.445Z,54.72
2023-03-30T23:31:26.482Z,54.21
2023-03-30T23:34:29.104Z,53.94
2023-03-30T23:37:32.485Z,53.56
2023-03-30T23:40:35.061Z,53.90
2023-03-30T23:43:38.918Z,54.49
2023-03-30T23:46:41.723Z,54.34
2023-03-30T23:49:44.394Z,54.14
2023-03-30T23:52:47.528Z,54.28
2023-03-30T23:55:51.197Z,54.60
2023-03-30T23:58:55.321Z,54.78
